sensor_id;sensor_type;location;lat;lon;timestamp;pressure;altitude;pressure_sealevel;temperature;humidity
5913;BME280;2982;42.684;23.356;2023-11-21T00:00:50;94775.50;;;3.36;100.00
5913;BME280;2982;42.684;23.356;2023-11-21T00:03:15;94003.44;;;-1.58;100.00
5913;BME280;2982;42.684;23.356;2023-11-21T00:05:41;93974.53;;;-2.05;100.00
5913;BME280;2982;42.684;23.356;2023-11-21T00:08:08;93950.47;;;-2.03;100.00
5913;BME280;2982;42.684;23.356;2023-11-21T00:10:34;93966.25;;;-1.65;100.00
5913;BME280;2982;42.684;23.356;2023-11-21T00:13:00;93939.31;;;-1.87;100.00
5913;BME280;2982;42.684;23.356;2023-11-21T00:15:25;94155.28;;;-0.75;100.00
5913;BME280;2982;42.684;23.356;2023-11-21T00:17:51;94255.00;;;0.00;100.00
5913;BME280;2982;42.684;23.356;2023-11-21T00:20:16;93955.34;;;-2.00;100.00
5913;BME280;2982;42.684;23.356;2023-11-21T00:22:42;94779.13;;;3.55;100.00
5913;BME280;2982;42.684;23.356;2023-11-21T00:25:08;94542.38;;;1.77;100.00
5913;BME280;2982;42.684;23.356;2023-11-21T00:27:36;93905.41;;;-2.31;100.00
5913;BME280;2982;42.684;23.356;2023-11-21T00:30:02;93911.41;;;-1.99;100.00
5913;BME280;2982;42.684;23.356;2023-11-21T00:32:27;94436.47;;;1.09;100.00
5913;BME280;2982;42.684;23.356;2023-11-21T00:34:53;94000.06;;;-1.18;100.00
5913;BME280;2982;42.684;23.356;2023-11-21T00:37:19;94355.56;;;1.12;100.00
5913;BME280;2982;42.684;23.356;2023-11-21T00:39:44;94100.88;;;-0.95;100.00
5913;BME280;2982;42.684;23.356;2023-11-21T00:42:09;94485.94;;;1.97;100.00
5913;BME280;2982;42.684;23.356;2023-11-21T00:44:38;94501.53;;;2.06;100.00
5913;BME280;2982;42.684;23.356;2023-11-21T00:47:03;94758.75;;;3.66;100.00
5913;BME280;2982;42.684;23.356;2023-11-21T00:49:29;94299.56;;;0.53;100.00
5913;BME280;2982;42.684;23.356;2023-11-21T00:51:54;94637.72;;;2.67;100.00
5913;BME280;2982;42.684;23.356;2023-11-21T00:54:19;94647.47;;;2.79;100.00
5913;BME280;2982;42.684;23.356;2023-11-21T00:56:45;94640.91;;;2.74;100.00
5913;BME280;2982;42.684;23.356;2023-11-21T00:59:10;94421.34;;;1.48;100.00
5913;BME280;2982;42.684;23.356;2023-11-21T01:01:36;94789.97;;;3.58;100.00
5913;BME280;2982;42.684;23.356;2023-11-21T01:04:01;94531.00;;;1.66;100.00
5913;BME280;2982;42.684;23.356;2023-11-21T01:06:26;94728.19;;;2.92;100.00
5913;BME280;2982;42.684;23.356;2023-11-21T01:08:51;94278.03;;;0.47;100.00
5913;BME280;2982;42.684;23.356;2023-11-21T01:11:17;94760.56;;;3.32;100.00
5913;BME280;2982;42.684;23.356;2023-11-21T01:13:42;94252.19;;;0.14;100.00
5913;BME280;2982;42.684;23.356;2023-11-21T01:16:08;94567.28;;;1.82;100.00
5913;BME280;2982;42.684;23.356;2023-11-21T01:18:35;94719.13;;;2.88;100.00
5913;BME280;2982;42.684;23.356;2023-11-21T01:21:00;94622.84;;;2.30;100.00
5913;BME280;2982;42.684;23.356;2023-11-21T01:23:26;94761.94;;;3.13;100.00
5913;BME280;2982;42.684;23.356;2023-11-21T01:25:57;94484.50;;;0.88;100.00
5913;BME280;2982;42.684;23.356;2023-11-21T01:28:23;94059.63;;;-1.46;100.00
5913;BME280;2982;42.684;23.356;2023-11-21T01:30:49;94468.81;;;1.17;100.00
5913;BME280;2982;42.684;23.356;2023-11-21T01:33:14;94332.69;;;-0.12;100.00
5913;BME280;2982;42.684;23.356;2023-11-21T01:35:40;94259.38;;;-0.09;100.00
5913;BME280;2982;42.684;23.356;2023-11-21T01:38:05;94490.13;;;1.31;100.00
5913;BME280;2982;42.684;23.356;2023-11-21T01:40:30;94153.66;;;-0.77;100.00
5913;BME280;2982;42.684;23.356;2023-11-21T01:42:56;94613.69;;;1.97;100.00
5913;BME280;2982;42.684;23.356;2023-11-21T01:45:21;94586.50;;;1.48;100.00
5913;BME280;2982;42.684;23.356;2023-11-21T01:47:47;94512.88;;;0.85;100.00
5913;BME280;2982;42.684;23.356;2023-11-21T01:50:15;94747.31;;;2.65;100.00
5913;BME280;2982;42.684;23.356;2023-11-21T01:52:46;94149.91;;;-0.95;100.00
5913;BME280;2982;42.684;23.356;2023-11-21T01:55:12;94246.81;;;-0.41;100.00
5913;BME280;2982;42.684;23.356;2023-11-21T01:57:39;94210.28;;;-1.24;100.00
5913;BME280;2982;42.684;23.356;2023-11-21T02:00:05;94628.38;;;1.76;100.00
5913;BME280;2982;42.684;23.356;2023-11-21T02:02:31;94624.31;;;1.72;100.00
5913;BME280;2982;42.684;23.356;2023-11-21T02:04:56;94344.75;;;0.07;100.00
5913;BME280;2982;42.684;23.356;2023-11-21T02:07:21;94052.09;;;-1.83;100.00
5913;BME280;2982;42.684;23.356;2023-11-21T02:09:47;94042.94;;;-2.26;100.00
5913;BME280;2982;42.684;23.356;2023-11-21T02:12:12;94823.81;;;2.46;100.00
5913;BME280;2982;42.684;23.356;2023-11-21T02:14:38;94146.84;;;-1.49;100.00
5913;BME280;2982;42.684;23.356;2023-11-21T02:17:03;94016.97;;;-2.11;100.00
5913;BME280;2982;42.684;23.356;2023-11-21T02:19:29;94569.06;;;1.08;100.00
5913;BME280;2982;42.684;23.356;2023-11-21T02:21:55;94510.34;;;0.88;100.00
5913;BME280;2982;42.684;23.356;2023-11-21T02:24:22;94530.50;;;0.81;100.00
5913;BME280;2982;42.684;23.356;2023-11-21T02:26:51;93952.53;;;-2.66;100.00
5913;BME280;2982;42.684;23.356;2023-11-21T02:29:22;94797.81;;;2.50;100.00
5913;BME280;2982;42.684;23.356;2023-11-21T02:31:49;93836.03;;;-3.76;100.00
5913;BME280;2982;42.684;23.356;2023-11-21T02:34:17;93952.78;;;-2.81;100.00
5913;BME280;2982;42.684;23.356;2023-11-21T02:36:46;94836.06;;;2.58;100.00
5913;BME280;2982;42.684;23.356;2023-11-21T02:39:12;94066.44;;;-1.54;100.00
5913;BME280;2982;42.684;23.356;2023-11-21T02:41:38;93998.69;;;-2.53;100.00
5913;BME280;2982;42.684;23.356;2023-11-21T02:44:04;93939.06;;;-3.02;100.00
5913;BME280;2982;42.684;23.356;2023-11-21T02:46:29;94159.91;;;-1.38;100.00
5913;BME280;2982;42.684;23.356;2023-11-21T02:48:54;94352.03;;;-0.63;100.00
5913;BME280;2982;42.684;23.356;2023-11-21T02:51:20;94523.94;;;1.12;100.00
5913;BME280;2982;42.684;23.356;2023-11-21T02:53:45;93982.63;;;-2.84;100.00
5913;BME280;2982;42.684;23.356;2023-11-21T02:56:11;94745.41;;;2.41;100.00
5913;BME280;2982;42.684;23.356;2023-11-21T02:58:36;94067.31;;;-2.44;100.00
5913;BME280;2982;42.684;23.356;2023-11-21T03:01:02;93929.13;;;-3.02;100.00
5913;BME280;2982;42.684;23.356;2023-11-21T03:03:27;94063.19;;;-1.99;100.00
5913;BME280;2982;42.684;23.356;2023-11-21T03:05:53;94451.38;;;0.02;100.00
5913;BME280;2982;42.684;23.356;2023-11-21T03:08:21;93917.97;;;-3.27;100.00
5913;BME280;2982;42.684;23.356;2023-11-21T03:10:46;94595.91;;;1.38;100.00
5913;BME280;2982;42.684;23.356;2023-11-21T03:13:11;94235.16;;;-0.79;100.00
5913;BME280;2982;42.684;23.356;2023-11-21T03:15:37;94755.72;;;2.29;100.00
5913;BME280;2982;42.684;23.356;2023-11-21T03:18:03;94737.38;;;2.27;100.00
5913;BME280;2982;42.684;23.356;2023-11-21T03:20:30;94722.56;;;2.17;100.00
5913;BME280;2982;42.684;23.356;2023-11-21T03:22:56;94456.81;;;0.22;100.00
5913;BME280;2982;42.684;23.356;2023-11-21T03:25:21;94091.25;;;-1.93;100.00
5913;BME280;2982;42.684;23.356;2023-11-21T03:27:47;94276.50;;;-0.69;100.00
5913;BME280;2982;42.684;23.356;2023-11-21T03:30:12;94687.09;;;2.00;100.00
5913;BME280;2982;42.684;23.356;2023-11-21T03:32:37;94762.09;;;2.42;100.00
5913;BME280;2982;42.684;23.356;2023-11-21T03:35:03;94530.78;;;0.67;100.00
5913;BME280;2982;42.684;23.356;2023-11-21T03:37:28;94569.53;;;0.86;100.00
5913;BME280;2982;42.684;23.356;2023-11-21T03:39:55;94236.47;;;-0.63;100.00
5913;BME280;2982;42.684;23.356;2023-11-21T03:42:20;94377.41;;;-0.03;100.00
5913;BME280;2982;42.684;23.356;2023-11-21T03:44:45;94502.22;;;0.79;100.00
5913;BME280;2982;42.684;23.356;2023-11-21T03:47:11;94551.00;;;0.97;100.00
5913;BME280;2982;42.684;23.356;2023-11-21T03:49:37;94331.88;;;-0.14;100.00
5913;BME280;2982;42.684;23.356;2023-11-21T03:52:03;94751.38;;;2.35;100.00
5913;BME280;2982;42.684;23.356;2023-11-21T03:54:28;94670.16;;;2.10;100.00
5913;BME280;2982;42.684;23.356;2023-11-21T03:56:54;94609.28;;;1.72;100.00
5913;BME280;2982;42.684;23.356;2023-11-21T03:59:19;94174.56;;;-0.83;100.00
5913;BME280;2982;42.684;23.356;2023-11-21T04:01:44;94201.06;;;-1.19;100.00
5913;BME280;2982;42.684;23.356;2023-11-21T04:04:10;94494.13;;;1.03;100.00
5913;BME280;2982;42.684;23.356;2023-11-21T04:06:35;94539.78;;;1.13;100.00
5913;BME280;2982;42.684;23.356;2023-11-21T04:09:00;94850.44;;;2.51;100.00
5913;BME280;2982;42.684;23.356;2023-11-21T04:11:25;94123.09;;;-1.24;100.00
5913;BME280;2982;42.684;23.356;2023-11-21T04:13:51;94463.69;;;0.87;100.00
5913;BME280;2982;42.684;23.356;2023-11-21T04:16:16;93967.88;;;-2.46;100.00
5913;BME280;2982;42.684;23.356;2023-11-21T04:18:42;94568.25;;;1.44;100.00
5913;BME280;2982;42.684;23.356;2023-11-21T04:21:07;94230.25;;;-0.46;100.00
5913;BME280;2982;42.684;23.356;2023-11-21T04:23:35;94139.84;;;-0.91;100.00
5913;BME280;2982;42.684;23.356;2023-11-21T04:26:01;94537.28;;;1.13;100.00
5913;BME280;2982;42.684;23.356;2023-11-21T04:28:26;94408.91;;;0.78;100.00
5913;BME280;2982;42.684;23.356;2023-11-21T06:15:38;94042.31;;;-1.52;100.00
5913;BME280;2982;42.684;23.356;2023-11-21T06:18:24;93966.53;;;-1.77;100.00
5913;BME280;2982;42.684;23.356;2023-11-21T06:20:51;94576.22;;;1.92;100.00
5913;BME280;2982;42.684;23.356;2023-11-21T06:23:41;94745.94;;;3.46;100.00
5913;BME280;2982;42.684;23.356;2023-11-21T06:26:09;94718.97;;;3.23;100.00
5913;BME280;2982;42.684;23.356;2023-11-21T06:28:39;94204.06;;;-0.26;100.00
5913;BME280;2982;42.684;23.356;2023-11-21T09:01:29;94719.88;;;8.33;100.00
5913;BME280;2982;42.684;23.356;2023-11-21T09:19:34;93997.16;;;4.02;100.00
5913;BME280;2982;42.684;23.356;2023-11-21T09:22:44;94008.78;;;3.84;100.00
5913;BME280;2982;42.684;23.356;2023-11-21T09:25:53;94144.09;;;5.49;100.00
5913;BME280;2982;42.684;23.356;2023-11-21T09:29:01;93945.97;;;4.04;100.00
5913;BME280;2982;42.684;23.356;2023-11-21T09:31:50;94063.41;;;5.14;100.00
5913;BME280;2982;42.684;23.356;2023-11-21T09:34:51;94043.06;;;5.19;100.00
5913;BME280;2982;42.684;23.356;2023-11-21T09:37:36;93932.53;;;4.61;100.00
5913;BME280;2982;42.684;23.356;2023-11-21T09:40:02;94016.66;;;5.45;100.00
5913;BME280;2982;42.684;23.356;2023-11-21T09:42:39;94368.91;;;8.02;100.00
5913;BME280;2982;42.684;23.356;2023-11-21T09:47:56;94074.72;;;5.78;100.00
5913;BME280;2982;42.684;23.356;2023-11-21T09:50:22;94035.34;;;5.58;100.00
5913;BME280;2982;42.684;23.356;2023-11-21T09:55:37;94099.56;;;6.02;100.00
5913;BME280;2982;42.684;23.356;2023-11-21T09:58:10;94156.28;;;6.95;100.00
5913;BME280;2982;42.684;23.356;2023-11-21T10:00:40;94577.63;;;9.41;100.00
5913;BME280;2982;42.684;23.356;2023-11-21T10:03:18;93911.75;;;5.78;100.00
5913;BME280;2982;42.684;23.356;2023-11-21T10:05:44;93833.66;;;5.28;100.00
5913;BME280;2982;42.684;23.356;2023-11-21T10:08:15;93889.53;;;5.69;100.00
5913;BME280;2982;42.684;23.356;2023-11-21T10:10:46;94018.78;;;6.54;100.00
5913;BME280;2982;42.684;23.356;2023-11-21T10:13:15;94615.81;;;10.44;100.00
5913;BME280;2982;42.684;23.356;2023-11-21T10:15:46;94110.78;;;7.13;100.00
5913;BME280;2982;42.684;23.356;2023-11-21T10:18:19;93831.84;;;5.31;100.00
5913;BME280;2982;42.684;23.356;2023-11-21T10:21:04;94011.59;;;6.95;100.00
5913;BME280;2982;42.684;23.356;2023-11-21T10:23:31;93999.34;;;7.19;100.00
5913;BME280;2982;42.684;23.356;2023-11-21T10:25:58;93917.00;;;6.71;100.00
5913;BME280;2982;42.684;23.356;2023-11-21T10:28:59;94145.22;;;8.37;100.00
5913;BME280;2982;42.684;23.356;2023-11-21T10:31:28;94085.31;;;8.38;100.00
5913;BME280;2982;42.684;23.356;2023-11-21T10:33:54;93943.91;;;7.01;100.00
5913;BME280;2982;42.684;23.356;2023-11-21T10:36:27;93919.03;;;7.09;100.00
5913;BME280;2982;42.684;23.356;2023-11-21T10:38:54;94139.38;;;8.51;100.00
5913;BME280;2982;42.684;23.356;2023-11-21T10:41:39;94518.25;;;11.32;100.00
5913;BME280;2982;42.684;23.356;2023-11-21T10:44:31;93709.53;;;6.06;100.00
5913;BME280;2982;42.684;23.356;2023-11-21T10:47:38;93853.28;;;6.81;100.00
5913;BME280;2982;42.684;23.356;2023-11-21T10:53:28;93798.38;;;7.00;100.00
5913;BME280;2982;42.684;23.356;2023-11-21T10:56:17;93901.69;;;7.77;100.00
5913;BME280;2982;42.684;23.356;2023-11-21T10:58:43;94269.72;;;9.89;100.00
5913;BME280;2982;42.684;23.356;2023-11-21T11:01:13;94040.75;;;8.78;100.00
5913;BME280;2982;42.684;23.356;2023-11-21T11:03:41;93913.06;;;7.84;100.00
5913;BME280;2982;42.684;23.356;2023-11-21T11:06:30;94131.81;;;9.36;100.00
5913;BME280;2982;42.684;23.356;2023-11-21T11:09:16;93749.63;;;6.70;100.00
5913;BME280;2982;42.684;23.356;2023-11-21T11:11:42;93795.28;;;6.95;100.00
5913;BME280;2982;42.684;23.356;2023-11-21T11:14:29;93786.28;;;7.05;100.00
5913;BME280;2982;42.684;23.356;2023-11-21T11:19:58;93702.66;;;6.24;100.00
5913;BME280;2982;42.684;23.356;2023-11-21T11:28:27;94042.56;;;8.90;100.00
5913;BME280;2982;42.684;23.356;2023-11-21T11:34:13;94096.09;;;8.98;100.00
5913;BME280;2982;42.684;23.356;2023-11-21T11:37:00;93916.53;;;8.12;100.00
5913;BME280;2982;42.684;23.356;2023-11-21T11:39:45;94454.13;;;11.93;100.00
5913;BME280;2982;42.684;23.356;2023-11-21T11:42:14;93753.59;;;7.04;100.00
5913;BME280;2982;42.684;23.356;2023-11-21T11:45:34;93657.91;;;6.27;100.00
5913;BME280;2982;42.684;23.356;2023-11-21T11:48:45;93824.38;;;7.17;100.00
5913;BME280;2982;42.684;23.356;2023-11-21T11:51:20;93926.94;;;7.63;100.00
5913;BME280;2982;42.684;23.356;2023-11-21T11:53:52;93732.47;;;6.47;100.00
5913;BME280;2982;42.684;23.356;2023-11-21T11:56:42;93843.38;;;7.08;100.00
5913;BME280;2982;42.684;23.356;2023-11-21T11:59:12;94214.69;;;9.62;100.00
5913;BME280;2982;42.684;23.356;2023-11-21T12:01:39;93737.34;;;6.20;100.00
5913;BME280;2982;42.684;23.356;2023-11-21T12:04:55;93800.28;;;6.81;100.00
5913;BME280;2982;42.684;23.356;2023-11-21T12:08:03;93747.34;;;6.06;100.00
5913;BME280;2982;42.684;23.356;2023-11-21T12:11:08;93794.00;;;6.13;100.00
5913;BME280;2982;42.684;23.356;2023-11-21T12:13:54;94457.44;;;10.74;100.00
5913;BME280;2982;42.684;23.356;2023-11-21T12:17:01;94269.38;;;9.38;100.00
5913;BME280;2982;42.684;23.356;2023-11-21T12:19:54;94451.88;;;10.40;100.00
5913;BME280;2982;42.684;23.356;2023-11-21T12:23:05;94514.88;;;10.20;100.00
5913;BME280;2982;42.684;23.356;2023-11-21T12:29:19;94338.59;;;8.95;100.00
5913;BME280;2982;42.684;23.356;2023-11-21T12:32:05;93812.47;;;5.49;100.00
5913;BME280;2982;42.684;23.356;2023-11-21T12:34:51;93657.09;;;4.37;100.00
5913;BME280;2982;42.684;23.356;2023-11-21T12:37:19;93817.44;;;5.33;100.00
5913;BME280;2982;42.684;23.356;2023-11-21T12:39:51;93808.66;;;5.25;100.00
5913;BME280;2982;42.684;23.356;2023-11-21T12:46:21;93716.97;;;4.63;100.00
5913;BME280;2982;42.684;23.356;2023-11-21T12:49:06;93683.09;;;4.53;100.00
5913;BME280;2982;42.684;23.356;2023-11-21T12:51:41;93892.63;;;5.74;100.00
5913;BME280;2982;42.684;23.356;2023-11-21T12:54:14;93739.06;;;4.91;100.00
5913;BME280;2982;42.684;23.356;2023-11-21T12:56:46;93973.38;;;6.54;100.00
5913;BME280;2982;42.684;23.356;2023-11-21T12:59:44;93895.50;;;6.01;100.00
5913;BME280;2982;42.684;23.356;2023-11-21T13:02:40;94420.00;;;9.78;100.00
5913;BME280;2982;42.684;23.356;2023-11-21T13:05:41;93691.63;;;5.32;100.00
5913;BME280;2982;42.684;23.356;2023-11-21T13:08:51;93622.75;;;4.53;100.00
5913;BME280;2982;42.684;23.356;2023-11-21T13:11:38;93876.63;;;6.08;100.00
5913;BME280;2982;42.684;23.356;2023-11-21T13:14:31;94039.19;;;7.14;100.00
5913;BME280;2982;42.684;23.356;2023-11-21T13:17:01;93783.53;;;5.41;100.00
5913;BME280;2982;42.684;23.356;2023-11-21T13:19:34;93726.13;;;5.14;100.00
5913;BME280;2982;42.684;23.356;2023-11-21T13:22:05;93640.47;;;4.67;100.00
5913;BME280;2982;42.684;23.356;2023-11-21T13:24:55;93670.88;;;4.96;100.00
5913;BME280;2982;42.684;23.356;2023-11-21T13:27:43;94357.50;;;9.19;100.00
5913;BME280;2982;42.684;23.356;2023-11-21T13:30:30;93683.41;;;4.97;100.00
5913;BME280;2982;42.684;23.356;2023-11-21T13:33:41;93586.44;;;4.59;100.00
5913;BME280;2982;42.684;23.356;2023-11-21T13:36:10;94406.16;;;10.12;100.00
5913;BME280;2982;42.684;23.356;2023-11-21T13:39:07;94116.41;;;8.40;100.00
5913;BME280;2982;42.684;23.356;2023-11-21T13:41:53;94395.66;;;10.18;100.00
5913;BME280;2982;42.684;23.356;2023-11-21T13:44:19;94405.66;;;10.21;100.00
5913;BME280;2982;42.684;23.356;2023-11-21T13:46:45;94046.63;;;7.92;100.00
5913;BME280;2982;42.684;23.356;2023-11-21T13:49:30;93637.41;;;5.26;100.00
5913;BME280;2982;42.684;23.356;2023-11-21T13:54:39;93659.97;;;5.12;100.00
5913;BME280;2982;42.684;23.356;2023-11-21T13:57:07;93652.09;;;5.18;100.00
5913;BME280;2982;42.684;23.356;2023-11-21T13:59:49;93857.50;;;6.35;100.00
5913;BME280;2982;42.684;23.356;2023-11-21T14:02:15;93680.53;;;5.52;100.00
5913;BME280;2982;42.684;23.356;2023-11-21T14:04:42;94131.72;;;8.53;100.00
5913;BME280;2982;42.684;23.356;2023-11-21T14:07:07;94127.00;;;8.47;100.00
5913;BME280;2982;42.684;23.356;2023-11-21T14:09:57;94375.44;;;10.02;100.00
5913;BME280;2982;42.684;23.356;2023-11-21T14:12:33;94306.16;;;9.59;100.00
5913;BME280;2982;42.684;23.356;2023-11-21T14:15:19;94325.50;;;9.46;100.00
5913;BME280;2982;42.684;23.356;2023-11-21T14:17:46;94281.84;;;9.13;100.00
5913;BME280;2982;42.684;23.356;2023-11-21T14:20:37;94095.28;;;8.11;100.00
5913;BME280;2982;42.684;23.356;2023-11-21T14:23:04;94002.06;;;7.45;100.00
5913;BME280;2982;42.684;23.356;2023-11-21T14:25:29;93946.66;;;6.97;100.00
5913;BME280;2982;42.684;23.356;2023-11-21T14:28:09;94141.88;;;8.37;100.00
5913;BME280;2982;42.684;23.356;2023-11-21T14:30:35;93907.78;;;6.85;100.00
5913;BME280;2982;42.684;23.356;2023-11-21T14:33:05;93627.28;;;4.79;100.00
5913;BME280;2982;42.684;23.356;2023-11-21T14:35:33;94102.22;;;8.22;100.00
5913;BME280;2982;42.684;23.356;2023-11-21T14:38:02;93930.75;;;7.11;100.00
5913;BME280;2982;42.684;23.356;2023-11-21T14:40:27;94191.78;;;8.35;100.00
5913;BME280;2982;42.684;23.356;2023-11-21T14:43:03;94314.63;;;9.44;100.00
5913;BME280;2982;42.684;23.356;2023-11-21T14:46:02;94138.91;;;8.30;100.00
5913;BME280;2982;42.684;23.356;2023-11-21T14:49:14;94147.19;;;8.32;100.00
5913;BME280;2982;42.684;23.356;2023-11-21T14:52:05;94333.28;;;9.43;100.00
5913;BME280;2982;42.684;23.356;2023-11-21T14:54:55;93808.81;;;6.03;100.00
5913;BME280;2982;42.684;23.356;2023-11-21T14:57:20;94349.59;;;9.53;100.00
5913;BME280;2982;42.684;23.356;2023-11-21T15:00:06;94008.16;;;7.12;100.00
5913;BME280;2982;42.684;23.356;2023-11-21T15:03:08;94369.34;;;9.62;100.00
5913;BME280;2982;42.684;23.356;2023-11-21T15:06:02;94036.63;;;7.29;100.00
5913;BME280;2982;42.684;23.356;2023-11-21T15:08:29;94045.66;;;7.49;100.00
5913;BME280;2982;42.684;23.356;2023-11-21T15:10:55;94238.50;;;8.73;100.00
5913;BME280;2982;42.684;23.356;2023-11-21T15:13:50;93826.34;;;5.89;100.00
5913;BME280;2982;42.684;23.356;2023-11-21T23:00:46;93922.69;;;4.74;100.00
5913;BME280;2982;42.684;23.356;2023-11-21T23:03:37;93976.22;;;4.59;100.00
5913;BME280;2982;42.684;23.356;2023-11-21T23:06:33;94223.06;;;6.73;100.00
5913;BME280;2982;42.684;23.356;2023-11-21T23:08:58;94288.38;;;6.79;100.00
5913;BME280;2982;42.684;23.356;2023-11-21T23:11:23;93513.25;;;2.02;100.00
5913;BME280;2982;42.684;23.356;2023-11-21T23:13:58;93461.84;;;1.75;100.00
5913;BME280;2982;42.684;23.356;2023-11-21T23:16:24;93886.41;;;4.25;100.00
5913;BME280;2982;42.684;23.356;2023-11-21T23:18:50;93326.50;;;1.22;100.00
5913;BME280;2982;42.684;23.356;2023-11-21T23:21:18;93912.81;;;4.52;100.00
5913;BME280;2982;42.684;23.356;2023-11-21T23:24:07;93281.53;;;0.63;100.00
5913;BME280;2982;42.684;23.356;2023-11-21T23:26:33;93996.94;;;4.82;100.00
5913;BME280;2982;42.684;23.356;2023-11-21T23:29:14;93370.16;;;0.95;100.00
5913;BME280;2982;42.684;23.356;2023-11-21T23:31:40;93800.81;;;3.54;100.00
5913;BME280;2982;42.684;23.356;2023-11-21T23:34:05;93318.09;;;0.65;100.00
5913;BME280;2982;42.684;23.356;2023-11-21T23:36:40;93460.63;;;1.84;100.00
5913;BME280;2982;42.684;23.356;2023-11-21T23:39:06;93575.72;;;2.82;100.00
5913;BME280;2982;42.684;23.356;2023-11-21T23:41:40;93499.72;;;2.06;100.00
5913;BME280;2982;42.684;23.356;2023-11-21T23:44:38;93553.16;;;2.44;100.00
5913;BME280;2982;42.684;23.356;2023-11-21T23:47:29;93786.28;;;3.61;100.00
5913;BME280;2982;42.684;23.356;2023-11-21T23:49:57;93466.28;;;1.68;100.00
5913;BME280;2982;42.684;23.356;2023-11-21T23:55:01;93515.50;;;2.08;100.00
